sensor_id;sensor_type;location;lat;lon;timestamp;temperature;humidity
5172;DHT22;2605;49.770;9.868;2023-08-07T00:01:30;11.10;99.90
5172;DHT22;2605;49.770;9.868;2023-08-07T00:03:56;11.10;99.90
5172;DHT22;2605;49.770;9.868;2023-08-07T00:06:21;11.10;99.90
5172;DHT22;2605;49.770;9.868;2023-08-07T00:08:47;11.10;99.90
5172;DHT22;2605;49.770;9.868;2023-08-07T00:11:12;11.20;99.90
5172;DHT22;2605;49.770;9.868;2023-08-07T00:13:38;11.10;99.90
5172;DHT22;2605;49.770;9.868;2023-08-07T00:16:03;11.10;99.90
5172;DHT22;2605;49.770;9.868;2023-08-07T00:18:29;11.10;99.90
5172;DHT22;2605;49.770;9.868;2023-08-07T00:20:55;11.10;99.90
5172;DHT22;2605;49.770;9.868;2023-08-07T00:23:20;11.10;99.90
5172;DHT22;2605;49.770;9.868;2023-08-07T00:25:46;11.10;99.90
5172;DHT22;2605;49.770;9.868;2023-08-07T00:28:11;11.10;99.90
5172;DHT22;2605;49.770;9.868;2023-08-07T00:30:37;11.10;99.90
5172;DHT22;2605;49.770;9.868;2023-08-07T00:33:02;11.00;99.90
5172;DHT22;2605;49.770;9.868;2023-08-07T00:35:28;11.00;99.90
5172;DHT22;2605;49.770;9.868;2023-08-07T00:37:53;11.00;99.90
5172;DHT22;2605;49.770;9.868;2023-08-07T00:40:19;11.10;99.90
5172;DHT22;2605;49.770;9.868;2023-08-07T00:42:44;11.00;99.90
5172;DHT22;2605;49.770;9.868;2023-08-07T00:45:10;11.00;99.90
5172;DHT22;2605;49.770;9.868;2023-08-07T00:47:41;11.00;99.90
5172;DHT22;2605;49.770;9.868;2023-08-07T00:50:07;10.90;99.90
5172;DHT22;2605;49.770;9.868;2023-08-07T00:52:33;10.90;99.90
5172;DHT22;2605;49.770;9.868;2023-08-07T00:54:58;10.90;99.90
5172;DHT22;2605;49.770;9.868;2023-08-07T00:57:24;10.90;99.90
5172;DHT22;2605;49.770;9.868;2023-08-07T00:59:50;10.90;99.90
5172;DHT22;2605;49.770;9.868;2023-08-07T01:02:16;10.90;99.90
5172;DHT22;2605;49.770;9.868;2023-08-07T01:04:42;10.90;99.90
5172;DHT22;2605;49.770;9.868;2023-08-07T01:07:08;10.90;99.90
5172;DHT22;2605;49.770;9.868;2023-08-07T01:09:36;10.90;99.90
5172;DHT22;2605;49.770;9.868;2023-08-07T01:12:15;10.90;99.90
5172;DHT22;2605;49.770;9.868;2023-08-07T01:14:55;10.80;99.90
5172;DHT22;2605;49.770;9.868;2023-08-07T01:17:23;10.80;99.90
5172;DHT22;2605;49.770;9.868;2023-08-07T01:19:51;10.80;99.90
5172;DHT22;2605;49.770;9.868;2023-08-07T01:22:18;10.80;99.90
5172;DHT22;2605;49.770;9.868;2023-08-07T01:24:46;10.80;99.90
5172;DHT22;2605;49.770;9.868;2023-08-07T01:32:35;10.80;99.90
5172;DHT22;2605;49.770;9.868;2023-08-07T01:35:06;10.80;99.90
5172;DHT22;2605;49.770;9.868;2023-08-07T01:37:35;10.80;99.90
5172;DHT22;2605;49.770;9.868;2023-08-07T01:40:02;10.70;99.90
5172;DHT22;2605;49.770;9.868;2023-08-07T01:42:35;10.70;99.90
5172;DHT22;2605;49.770;9.868;2023-08-07T01:45:01;10.70;99.90
5172;DHT22;2605;49.770;9.868;2023-08-07T01:47:27;10.70;99.90
5172;DHT22;2605;49.770;9.868;2023-08-07T01:49:52;10.80;99.90
5172;DHT22;2605;49.770;9.868;2023-08-07T01:52:18;10.70;99.90
5172;DHT22;2605;49.770;9.868;2023-08-07T01:54:43;10.70;99.90
5172;DHT22;2605;49.770;9.868;2023-08-07T01:57:09;10.70;99.90
5172;DHT22;2605;49.770;9.868;2023-08-07T01:59:34;10.80;99.90
5172;DHT22;2605;49.770;9.868;2023-08-07T02:02:00;10.70;99.90
5172;DHT22;2605;49.770;9.868;2023-08-07T02:04:25;10.70;99.90
5172;DHT22;2605;49.770;9.868;2023-08-07T02:06:50;10.70;99.90
5172;DHT22;2605;49.770;9.868;2023-08-07T02:09:16;10.70;99.90
5172;DHT22;2605;49.770;9.868;2023-08-07T02:11:41;10.80;99.90
5172;DHT22;2605;49.770;9.868;2023-08-07T02:14:08;10.80;99.90
5172;DHT22;2605;49.770;9.868;2023-08-07T02:16:33;10.70;99.90
5172;DHT22;2605;49.770;9.868;2023-08-07T02:18:59;10.70;99.90
5172;DHT22;2605;49.770;9.868;2023-08-07T02:21:24;10.70;99.90
5172;DHT22;2605;49.770;9.868;2023-08-07T02:23:50;10.60;99.90
5172;DHT22;2605;49.770;9.868;2023-08-07T02:26:15;10.60;99.90
5172;DHT22;2605;49.770;9.868;2023-08-07T02:28:41;10.70;99.90
5172;DHT22;2605;49.770;9.868;2023-08-07T02:31:06;10.70;99.90
5172;DHT22;2605;49.770;9.868;2023-08-07T02:33:32;10.70;99.90
5172;DHT22;2605;49.770;9.868;2023-08-07T02:35:57;10.70;99.90
5172;DHT22;2605;49.770;9.868;2023-08-07T02:38:24;10.70;99.90
5172;DHT22;2605;49.770;9.868;2023-08-07T02:40:49;10.70;99.90
5172;DHT22;2605;49.770;9.868;2023-08-07T02:43:15;10.80;99.90
5172;DHT22;2605;49.770;9.868;2023-08-07T02:45:40;10.70;99.90
5172;DHT22;2605;49.770;9.868;2023-08-07T02:48:06;10.70;99.90
5172;DHT22;2605;49.770;9.868;2023-08-07T02:50:31;10.70;99.90
5172;DHT22;2605;49.770;9.868;2023-08-07T02:52:59;10.70;99.90
5172;DHT22;2605;49.770;9.868;2023-08-07T02:55:26;10.70;99.90
5172;DHT22;2605;49.770;9.868;2023-08-07T02:57:52;10.70;99.90
5172;DHT22;2605;49.770;9.868;2023-08-07T03:00:18;10.60;99.90
5172;DHT22;2605;49.770;9.868;2023-08-07T03:02:43;10.70;99.90
5172;DHT22;2605;49.770;9.868;2023-08-07T03:05:09;10.70;99.90
5172;DHT22;2605;49.770;9.868;2023-08-07T03:07:34;10.70;99.90
5172;DHT22;2605;49.770;9.868;2023-08-07T03:10:00;10.70;99.90
5172;DHT22;2605;49.770;9.868;2023-08-07T03:12:29;10.70;99.90
5172;DHT22;2605;49.770;9.868;2023-08-07T03:14:54;10.60;99.90
5172;DHT22;2605;49.770;9.868;2023-08-07T03:17:19;10.70;99.90
5172;DHT22;2605;49.770;9.868;2023-08-07T03:19:46;10.60;99.90
5172;DHT22;2605;49.770;9.868;2023-08-07T03:22:12;10.60;99.90
5172;DHT22;2605;49.770;9.868;2023-08-07T03:24:38;10.60;99.90
5172;DHT22;2605;49.770;9.868;2023-08-07T03:27:04;10.60;99.90
5172;DHT22;2605;49.770;9.868;2023-08-07T03:29:29;10.60;99.90
5172;DHT22;2605;49.770;9.868;2023-08-07T03:31:55;10.60;99.90
5172;DHT22;2605;49.770;9.868;2023-08-07T03:34:21;10.60;99.90
5172;DHT22;2605;49.770;9.868;2023-08-07T03:36:46;10.70;99.90
5172;DHT22;2605;49.770;9.868;2023-08-07T03:39:12;10.50;99.90
5172;DHT22;2605;49.770;9.868;2023-08-07T03:41:38;10.50;99.90
5172;DHT22;2605;49.770;9.868;2023-08-07T03:44:03;10.50;99.90
5172;DHT22;2605;49.770;9.868;2023-08-07T03:46:29;10.50;99.90
5172;DHT22;2605;49.770;9.868;2023-08-07T03:48:54;10.50;99.90
5172;DHT22;2605;49.770;9.868;2023-08-07T03:51:20;10.60;99.90
5172;DHT22;2605;49.770;9.868;2023-08-07T03:53:46;10.50;99.90
5172;DHT22;2605;49.770;9.868;2023-08-07T03:56:11;10.50;99.90
5172;DHT22;2605;49.770;9.868;2023-08-07T03:58:40;10.50;99.90
5172;DHT22;2605;49.770;9.868;2023-08-07T04:01:06;10.50;99.90
5172;DHT22;2605;49.770;9.868;2023-08-07T04:03:31;10.50;99.90
5172;DHT22;2605;49.770;9.868;2023-08-07T04:05:57;10.50;99.90
5172;DHT22;2605;49.770;9.868;2023-08-07T04:08:23;10.50;99.90
5172;DHT22;2605;49.770;9.868;2023-08-07T04:11:02;10.50;99.90
5172;DHT22;2605;49.770;9.868;2023-08-07T04:13:29;10.50;99.90
5172;DHT22;2605;49.770;9.868;2023-08-07T04:15:55;10.50;99.90
5172;DHT22;2605;49.770;9.868;2023-08-07T04:18:20;10.60;99.90
5172;DHT22;2605;49.770;9.868;2023-08-07T04:20:53;10.50;99.90
5172;DHT22;2605;49.770;9.868;2023-08-07T04:23:19;10.50;99.90
5172;DHT22;2605;49.770;9.868;2023-08-07T04:25:48;10.60;99.90
5172;DHT22;2605;49.770;9.868;2023-08-07T04:28:14;10.50;99.90
5172;DHT22;2605;49.770;9.868;2023-08-07T04:30:44;10.60;99.90
5172;DHT22;2605;49.770;9.868;2023-08-07T04:33:12;10.60;99.90
5172;DHT22;2605;49.770;9.868;2023-08-07T04:35:38;10.60;99.90
5172;DHT22;2605;49.770;9.868;2023-08-07T04:38:03;10.60;99.90
5172;DHT22;2605;49.770;9.868;2023-08-07T04:40:29;10.60;99.90
5172;DHT22;2605;49.770;9.868;2023-08-07T04:42:56;10.60;99.90
5172;DHT22;2605;49.770;9.868;2023-08-07T04:45:21;10.60;99.90
5172;DHT22;2605;49.770;9.868;2023-08-07T04:47:47;10.60;99.90
5172;DHT22;2605;49.770;9.868;2023-08-07T04:50:12;10.60;99.90
5172;DHT22;2605;49.770;9.868;2023-08-07T04:52:38;10.60;99.90
5172;DHT22;2605;49.770;9.868;2023-08-07T04:55:04;10.60;99.90
5172;DHT22;2605;49.770;9.868;2023-08-07T04:57:30;10.60;99.90
5172;DHT22;2605;49.770;9.868;2023-08-07T04:59:55;10.60;99.90
5172;DHT22;2605;49.770;9.868;2023-08-07T05:02:21;10.60;99.90
5172;DHT22;2605;49.770;9.868;2023-08-07T05:04:47;10.50;99.90
5172;DHT22;2605;49.770;9.868;2023-08-07T05:07:12;10.60;99.90
5172;DHT22;2605;49.770;9.868;2023-08-07T05:09:38;10.60;99.90
5172;DHT22;2605;49.770;9.868;2023-08-07T05:12:05;10.50;99.90
5172;DHT22;2605;49.770;9.868;2023-08-07T05:14:30;10.50;99.90
5172;DHT22;2605;49.770;9.868;2023-08-07T05:16:56;10.50;99.90
5172;DHT22;2605;49.770;9.868;2023-08-07T05:19:21;10.60;99.90
5172;DHT22;2605;49.770;9.868;2023-08-07T05:21:48;10.60;99.90
5172;DHT22;2605;49.770;9.868;2023-08-07T05:24:17;10.50;99.90
5172;DHT22;2605;49.770;9.868;2023-08-07T05:26:43;10.50;99.90
5172;DHT22;2605;49.770;9.868;2023-08-07T05:29:08;10.50;99.90
5172;DHT22;2605;49.770;9.868;2023-08-07T05:31:34;10.50;99.90
5172;DHT22;2605;49.770;9.868;2023-08-07T05:33:59;10.50;99.90
5172;DHT22;2605;49.770;9.868;2023-08-07T05:36:25;10.50;99.90
5172;DHT22;2605;49.770;9.868;2023-08-07T05:38:51;10.50;99.90
5172;DHT22;2605;49.770;9.868;2023-08-07T05:41:16;10.50;99.90
5172;DHT22;2605;49.770;9.868;2023-08-07T05:43:45;10.50;99.90
5172;DHT22;2605;49.770;9.868;2023-08-07T05:46:11;10.50;99.90
5172;DHT22;2605;49.770;9.868;2023-08-07T05:48:36;10.50;99.90
5172;DHT22;2605;49.770;9.868;2023-08-07T05:51:02;10.50;99.90
5172;DHT22;2605;49.770;9.868;2023-08-07T05:53:27;10.50;99.90
5172;DHT22;2605;49.770;9.868;2023-08-07T05:55:53;10.60;99.90
5172;DHT22;2605;49.770;9.868;2023-08-07T05:58:18;10.60;99.90
5172;DHT22;2605;49.770;9.868;2023-08-07T06:00:44;10.60;99.90
5172;DHT22;2605;49.770;9.868;2023-08-07T06:03:10;10.60;99.90
5172;DHT22;2605;49.770;9.868;2023-08-07T06:05:35;10.60;99.90
5172;DHT22;2605;49.770;9.868;2023-08-07T06:08:01;10.70;99.90
5172;DHT22;2605;49.770;9.868;2023-08-07T06:10:27;10.70;99.90
5172;DHT22;2605;49.770;9.868;2023-08-07T06:12:53;10.70;99.90
5172;DHT22;2605;49.770;9.868;2023-08-07T06:15:18;10.70;99.90
5172;DHT22;2605;49.770;9.868;2023-08-07T06:17:44;10.80;99.90
5172;DHT22;2605;49.770;9.868;2023-08-07T06:20:10;10.80;99.90
5172;DHT22;2605;49.770;9.868;2023-08-07T06:22:37;10.80;99.90
5172;DHT22;2605;49.770;9.868;2023-08-07T06:25:02;10.90;99.90
5172;DHT22;2605;49.770;9.868;2023-08-07T06:27:28;11.00;99.90
5172;DHT22;2605;49.770;9.868;2023-08-07T06:29:53;11.10;99.90
5172;DHT22;2605;49.770;9.868;2023-08-07T06:32:19;11.20;99.90
5172;DHT22;2605;49.770;9.868;2023-08-07T06:34:45;11.30;99.90
5172;DHT22;2605;49.770;9.868;2023-08-07T06:37:11;11.30;99.90
5172;DHT22;2605;49.770;9.868;2023-08-07T06:39:37;11.30;99.90
5172;DHT22;2605;49.770;9.868;2023-08-07T06:42:03;11.40;99.90
5172;DHT22;2605;49.770;9.868;2023-08-07T06:44:29;11.50;99.90
5172;DHT22;2605;49.770;9.868;2023-08-07T06:46:54;11.60;99.90
5172;DHT22;2605;49.770;9.868;2023-08-07T06:49:20;11.60;99.90
5172;DHT22;2605;49.770;9.868;2023-08-07T06:51:45;11.50;99.90
5172;DHT22;2605;49.770;9.868;2023-08-07T06:54:11;11.60;99.90
5172;DHT22;2605;49.770;9.868;2023-08-07T06:56:36;11.70;99.90
5172;DHT22;2605;49.770;9.868;2023-08-07T06:59:06;11.70;99.90
5172;DHT22;2605;49.770;9.868;2023-08-07T07:01:31;11.70;99.90
5172;DHT22;2605;49.770;9.868;2023-08-07T07:03:57;11.60;99.90
5172;DHT22;2605;49.770;9.868;2023-08-07T07:06:23;11.60;99.90
5172;DHT22;2605;49.770;9.868;2023-08-07T07:08:51;11.60;99.90
5172;DHT22;2605;49.770;9.868;2023-08-07T07:11:19;11.50;99.90
5172;DHT22;2605;49.770;9.868;2023-08-07T07:13:46;11.50;99.90
5172;DHT22;2605;49.770;9.868;2023-08-07T07:16:11;11.50;99.90
5172;DHT22;2605;49.770;9.868;2023-08-07T07:18:38;11.60;99.90
5172;DHT22;2605;49.770;9.868;2023-08-07T07:21:04;11.70;99.90
5172;DHT22;2605;49.770;9.868;2023-08-07T07:23:29;11.60;99.90
5172;DHT22;2605;49.770;9.868;2023-08-07T07:25:55;11.60;99.90
5172;DHT22;2605;49.770;9.868;2023-08-07T07:28:22;11.50;99.90
5172;DHT22;2605;49.770;9.868;2023-08-07T07:30:47;11.60;99.90
5172;DHT22;2605;49.770;9.868;2023-08-07T07:33:14;11.50;99.90
5172;DHT22;2605;49.770;9.868;2023-08-07T07:35:39;11.60;99.90
5172;DHT22;2605;49.770;9.868;2023-08-07T07:38:06;11.60;99.90
5172;DHT22;2605;49.770;9.868;2023-08-07T07:40:31;11.60;99.90
5172;DHT22;2605;49.770;9.868;2023-08-07T07:42:57;11.60;99.90
5172;DHT22;2605;49.770;9.868;2023-08-07T07:45:23;11.50;99.90
5172;DHT22;2605;49.770;9.868;2023-08-07T07:47:48;11.50;99.90
5172;DHT22;2605;49.770;9.868;2023-08-07T07:50:14;11.60;99.90
5172;DHT22;2605;49.770;9.868;2023-08-07T07:52:39;11.50;99.90
5172;DHT22;2605;49.770;9.868;2023-08-07T07:55:05;11.50;99.90
5172;DHT22;2605;49.770;9.868;2023-08-07T07:57:31;11.50;99.90
5172;DHT22;2605;49.770;9.868;2023-08-07T07:59:56;11.70;99.90
5172;DHT22;2605;49.770;9.868;2023-08-07T08:02:22;11.80;99.90
5172;DHT22;2605;49.770;9.868;2023-08-07T08:04:50;12.00;99.90
5172;DHT22;2605;49.770;9.868;2023-08-07T08:07:16;12.10;99.90
5172;DHT22;2605;49.770;9.868;2023-08-07T08:09:41;12.00;99.90
5172;DHT22;2605;49.770;9.868;2023-08-07T08:12:07;12.10;99.90
5172;DHT22;2605;49.770;9.868;2023-08-07T08:14:36;12.00;99.90
5172;DHT22;2605;49.770;9.868;2023-08-07T08:17:02;12.00;99.90
5172;DHT22;2605;49.770;9.868;2023-08-07T08:19:27;11.90;99.90
5172;DHT22;2605;49.770;9.868;2023-08-07T08:21:53;11.90;99.90
5172;DHT22;2605;49.770;9.868;2023-08-07T08:24:19;11.80;99.90
5172;DHT22;2605;49.770;9.868;2023-08-07T08:26:44;11.90;99.90
5172;DHT22;2605;49.770;9.868;2023-08-07T08:29:10;11.80;99.90
5172;DHT22;2605;49.770;9.868;2023-08-07T08:31:35;11.80;99.90
5172;DHT22;2605;49.770;9.868;2023-08-07T08:34:01;11.90;99.90
5172;DHT22;2605;49.770;9.868;2023-08-07T08:36:26;11.80;99.90
5172;DHT22;2605;49.770;9.868;2023-08-07T08:38:55;11.90;99.90
5172;DHT22;2605;49.770;9.868;2023-08-07T08:41:21;11.90;99.90
5172;DHT22;2605;49.770;9.868;2023-08-07T08:43:46;11.90;99.90
5172;DHT22;2605;49.770;9.868;2023-08-07T08:46:14;11.90;99.90
5172;DHT22;2605;49.770;9.868;2023-08-07T08:48:41;11.90;99.90
5172;DHT22;2605;49.770;9.868;2023-08-07T08:51:08;11.90;99.90
5172;DHT22;2605;49.770;9.868;2023-08-07T08:53:34;11.90;99.90
5172;DHT22;2605;49.770;9.868;2023-08-07T08:56:01;11.90;99.90
5172;DHT22;2605;49.770;9.868;2023-08-07T08:58:27;12.00;99.90
5172;DHT22;2605;49.770;9.868;2023-08-07T09:00:53;12.00;99.90
5172;DHT22;2605;49.770;9.868;2023-08-07T09:03:22;12.00;99.90
5172;DHT22;2605;49.770;9.868;2023-08-07T09:05:49;12.00;99.90
5172;DHT22;2605;49.770;9.868;2023-08-07T09:08:18;12.10;99.90
5172;DHT22;2605;49.770;9.868;2023-08-07T09:10:46;12.10;99.90
5172;DHT22;2605;49.770;9.868;2023-08-07T09:13:14;12.20;99.90
5172;DHT22;2605;49.770;9.868;2023-08-07T09:15:40;12.30;99.90
5172;DHT22;2605;49.770;9.868;2023-08-07T09:18:08;12.30;99.90
5172;DHT22;2605;49.770;9.868;2023-08-07T09:20:35;12.50;99.90
5172;DHT22;2605;49.770;9.868;2023-08-07T09:23:04;12.60;99.90
5172;DHT22;2605;49.770;9.868;2023-08-07T09:25:31;12.60;99.90
5172;DHT22;2605;49.770;9.868;2023-08-07T09:27:57;12.70;99.90
5172;DHT22;2605;49.770;9.868;2023-08-07T09:30:26;12.70;99.90
5172;DHT22;2605;49.770;9.868;2023-08-07T09:32:52;12.60;99.90
5172;DHT22;2605;49.770;9.868;2023-08-07T09:35:21;12.50;99.90
5172;DHT22;2605;49.770;9.868;2023-08-07T09:37:46;12.50;99.90
5172;DHT22;2605;49.770;9.868;2023-08-07T09:40:12;12.50;99.90
5172;DHT22;2605;49.770;9.868;2023-08-07T09:42:40;12.50;99.90
5172;DHT22;2605;49.770;9.868;2023-08-07T09:47:44;12.60;99.90
5172;DHT22;2605;49.770;9.868;2023-08-07T09:50:15;12.70;99.90
5172;DHT22;2605;49.770;9.868;2023-08-07T09:52:42;12.80;99.90
5172;DHT22;2605;49.770;9.868;2023-08-07T09:55:07;12.90;99.90
5172;DHT22;2605;49.770;9.868;2023-08-07T09:57:33;12.90;99.90
5172;DHT22;2605;49.770;9.868;2023-08-07T10:00:00;13.00;99.90
5172;DHT22;2605;49.770;9.868;2023-08-07T10:02:25;12.90;99.90
5172;DHT22;2605;49.770;9.868;2023-08-07T10:04:53;12.80;99.90
5172;DHT22;2605;49.770;9.868;2023-08-07T10:07:19;12.80;99.90
5172;DHT22;2605;49.770;9.868;2023-08-07T10:09:45;12.80;99.90
5172;DHT22;2605;49.770;9.868;2023-08-07T10:12:12;12.80;99.90
5172;DHT22;2605;49.770;9.868;2023-08-07T10:14:40;12.90;99.90
5172;DHT22;2605;49.770;9.868;2023-08-07T10:17:07;13.00;99.90
5172;DHT22;2605;49.770;9.868;2023-08-07T10:19:32;13.00;99.90
5172;DHT22;2605;49.770;9.868;2023-08-07T10:21:58;13.10;99.90
5172;DHT22;2605;49.770;9.868;2023-08-07T10:24:26;13.30;99.90
5172;DHT22;2605;49.770;9.868;2023-08-07T10:26:53;13.30;99.90
5172;DHT22;2605;49.770;9.868;2023-08-07T10:29:20;13.20;99.90
5172;DHT22;2605;49.770;9.868;2023-08-07T10:31:47;13.20;99.90
5172;DHT22;2605;49.770;9.868;2023-08-07T10:34:14;13.30;99.90
5172;DHT22;2605;49.770;9.868;2023-08-07T10:36:39;13.70;99.90
5172;DHT22;2605;49.770;9.868;2023-08-07T10:39:11;13.50;99.90
5172;DHT22;2605;49.770;9.868;2023-08-07T10:41:45;13.30;99.90
5172;DHT22;2605;49.770;9.868;2023-08-07T10:44:18;13.10;99.90
5172;DHT22;2605;49.770;9.868;2023-08-07T10:46:57;13.10;99.90
5172;DHT22;2605;49.770;9.868;2023-08-07T10:49:36;12.90;99.90
5172;DHT22;2605;49.770;9.868;2023-08-07T10:52:22;12.70;99.90
5172;DHT22;2605;49.770;9.868;2023-08-07T10:54:50;12.80;99.90
5172;DHT22;2605;49.770;9.868;2023-08-07T10:57:18;12.80;99.90
5172;DHT22;2605;49.770;9.868;2023-08-07T10:59:48;13.40;99.90
5172;DHT22;2605;49.770;9.868;2023-08-07T11:02:25;13.00;99.90
5172;DHT22;2605;49.770;9.868;2023-08-07T11:04:54;13.10;99.90
5172;DHT22;2605;49.770;9.868;2023-08-07T11:07:26;13.10;99.90
5172;DHT22;2605;49.770;9.868;2023-08-07T11:09:53;13.10;99.90
5172;DHT22;2605;49.770;9.868;2023-08-07T11:12:19;12.90;99.90
5172;DHT22;2605;49.770;9.868;2023-08-07T11:14:45;12.60;99.90
5172;DHT22;2605;49.770;9.868;2023-08-07T11:17:11;12.50;99.90
5172;DHT22;2605;49.770;9.868;2023-08-07T11:19:38;12.50;99.90
5172;DHT22;2605;49.770;9.868;2023-08-07T11:22:04;12.40;99.90
5172;DHT22;2605;49.770;9.868;2023-08-07T11:24:30;12.40;99.90
5172;DHT22;2605;49.770;9.868;2023-08-07T11:26:56;12.30;99.90
5172;DHT22;2605;49.770;9.868;2023-08-07T11:29:22;12.40;99.90
5172;DHT22;2605;49.770;9.868;2023-08-07T11:31:50;12.30;99.90
5172;DHT22;2605;49.770;9.868;2023-08-07T11:34:19;12.40;99.90
5172;DHT22;2605;49.770;9.868;2023-08-07T11:36:45;12.50;99.90
5172;DHT22;2605;49.770;9.868;2023-08-07T11:39:12;12.50;99.90
5172;DHT22;2605;49.770;9.868;2023-08-07T11:41:37;12.50;99.90
5172;DHT22;2605;49.770;9.868;2023-08-07T11:44:03;12.50;99.90
5172;DHT22;2605;49.770;9.868;2023-08-07T11:46:29;12.50;99.90
5172;DHT22;2605;49.770;9.868;2023-08-07T11:48:56;12.60;99.90
5172;DHT22;2605;49.770;9.868;2023-08-07T11:51:22;12.60;99.90
5172;DHT22;2605;49.770;9.868;2023-08-07T11:53:48;12.80;99.90
5172;DHT22;2605;49.770;9.868;2023-08-07T11:56:17;13.00;99.90
5172;DHT22;2605;49.770;9.868;2023-08-07T11:58:45;12.90;99.90
5172;DHT22;2605;49.770;9.868;2023-08-07T12:01:16;13.00;99.90
5172;DHT22;2605;49.770;9.868;2023-08-07T12:06:53;13.20;99.90
5172;DHT22;2605;49.770;9.868;2023-08-07T12:09:18;13.30;99.90
5172;DHT22;2605;49.770;9.868;2023-08-07T12:11:44;13.40;99.90
5172;DHT22;2605;49.770;9.868;2023-08-07T12:14:13;13.40;99.90
5172;DHT22;2605;49.770;9.868;2023-08-07T12:16:44;13.20;99.90
5172;DHT22;2605;49.770;9.868;2023-08-07T12:19:11;13.20;99.90
5172;DHT22;2605;49.770;9.868;2023-08-07T12:21:36;13.40;99.90
5172;DHT22;2605;49.770;9.868;2023-08-07T12:24:06;13.40;99.90
5172;DHT22;2605;49.770;9.868;2023-08-07T12:26:32;13.50;99.90
5172;DHT22;2605;49.770;9.868;2023-08-07T12:28:57;13.60;99.90
5172;DHT22;2605;49.770;9.868;2023-08-07T12:31:23;13.60;99.90
5172;DHT22;2605;49.770;9.868;2023-08-07T12:33:49;13.60;99.90
5172;DHT22;2605;49.770;9.868;2023-08-07T12:36:14;13.60;99.90
5172;DHT22;2605;49.770;9.868;2023-08-07T12:38:40;13.40;99.90
5172;DHT22;2605;49.770;9.868;2023-08-07T12:41:06;13.30;99.90
5172;DHT22;2605;49.770;9.868;2023-08-07T12:43:31;13.30;99.90
5172;DHT22;2605;49.770;9.868;2023-08-07T12:45:58;13.20;99.90
5172;DHT22;2605;49.770;9.868;2023-08-07T12:48:24;13.20;99.90
5172;DHT22;2605;49.770;9.868;2023-08-07T12:50:51;13.10;99.90
5172;DHT22;2605;49.770;9.868;2023-08-07T12:53:17;13.20;99.90
5172;DHT22;2605;49.770;9.868;2023-08-07T12:55:42;13.10;99.90
5172;DHT22;2605;49.770;9.868;2023-08-07T12:58:08;13.20;99.90
5172;DHT22;2605;49.770;9.868;2023-08-07T13:00:33;13.10;99.90
5172;DHT22;2605;49.770;9.868;2023-08-07T13:02:59;13.30;99.90
5172;DHT22;2605;49.770;9.868;2023-08-07T13:05:24;13.40;99.90
5172;DHT22;2605;49.770;9.868;2023-08-07T13:07:51;13.30;99.90
5172;DHT22;2605;49.770;9.868;2023-08-07T13:10:19;13.30;99.90
5172;DHT22;2605;49.770;9.868;2023-08-07T13:12:48;13.40;99.90
5172;DHT22;2605;49.770;9.868;2023-08-07T13:15:15;13.30;99.90
5172;DHT22;2605;49.770;9.868;2023-08-07T13:17:41;13.30;99.90
5172;DHT22;2605;49.770;9.868;2023-08-07T13:20:07;13.30;99.90
5172;DHT22;2605;49.770;9.868;2023-08-07T13:22:40;13.30;99.90
5172;DHT22;2605;49.770;9.868;2023-08-07T13:25:07;13.50;99.90
5172;DHT22;2605;49.770;9.868;2023-08-07T13:27:33;13.70;99.90
5172;DHT22;2605;49.770;9.868;2023-08-07T13:29:59;13.80;99.90
5172;DHT22;2605;49.770;9.868;2023-08-07T13:32:25;13.80;99.90
5172;DHT22;2605;49.770;9.868;2023-08-07T13:34:51;13.90;99.90
5172;DHT22;2605;49.770;9.868;2023-08-07T13:37:17;13.90;99.90
5172;DHT22;2605;49.770;9.868;2023-08-07T13:39:42;14.10;99.90
5172;DHT22;2605;49.770;9.868;2023-08-07T13:42:08;14.30;99.90
5172;DHT22;2605;49.770;9.868;2023-08-07T13:44:34;14.40;99.90
5172;DHT22;2605;49.770;9.868;2023-08-07T13:47:00;14.50;99.90
5172;DHT22;2605;49.770;9.868;2023-08-07T13:49:25;14.40;99.90
5172;DHT22;2605;49.770;9.868;2023-08-07T13:51:51;14.60;99.90
5172;DHT22;2605;49.770;9.868;2023-08-07T13:54:16;14.60;99.90
5172;DHT22;2605;49.770;9.868;2023-08-07T13:56:42;14.50;99.90
5172;DHT22;2605;49.770;9.868;2023-08-07T13:59:08;14.50;99.90
5172;DHT22;2605;49.770;9.868;2023-08-07T14:01:34;14.50;99.90
5172;DHT22;2605;49.770;9.868;2023-08-07T14:04:01;14.70;99.90
5172;DHT22;2605;49.770;9.868;2023-08-07T14:06:26;15.80;99.90
5172;DHT22;2605;49.770;9.868;2023-08-07T14:08:52;17.20;99.90
5172;DHT22;2605;49.770;9.868;2023-08-07T14:11:18;18.20;99.90
5172;DHT22;2605;49.770;9.868;2023-08-07T14:13:44;19.20;99.90
5172;DHT22;2605;49.770;9.868;2023-08-07T14:16:11;19.10;99.90
5172;DHT22;2605;49.770;9.868;2023-08-07T14:18:39;19.80;99.90
5172;DHT22;2605;49.770;9.868;2023-08-07T14:21:08;19.20;99.90
5172;DHT22;2605;49.770;9.868;2023-08-07T14:23:34;20.50;99.90
5172;DHT22;2605;49.770;9.868;2023-08-07T14:25:59;20.20;99.90
5172;DHT22;2605;49.770;9.868;2023-08-07T14:28:25;19.60;99.90
5172;DHT22;2605;49.770;9.868;2023-08-07T14:30:52;18.30;99.90
5172;DHT22;2605;49.770;9.868;2023-08-07T14:33:18;18.30;99.90
5172;DHT22;2605;49.770;9.868;2023-08-07T14:35:43;20.40;99.90
5172;DHT22;2605;49.770;9.868;2023-08-07T14:38:09;19.90;99.90
5172;DHT22;2605;49.770;9.868;2023-08-07T14:40:34;19.10;99.90
5172;DHT22;2605;49.770;9.868;2023-08-07T14:43:04;18.40;99.90
5172;DHT22;2605;49.770;9.868;2023-08-07T14:45:30;18.30;99.90
5172;DHT22;2605;49.770;9.868;2023-08-07T14:47:56;17.20;99.90
5172;DHT22;2605;49.770;9.868;2023-08-07T14:50:21;16.40;99.90
5172;DHT22;2605;49.770;9.868;2023-08-07T14:52:47;16.30;99.90
5172;DHT22;2605;49.770;9.868;2023-08-07T14:55:12;16.10;99.90
5172;DHT22;2605;49.770;9.868;2023-08-07T14:57:38;19.40;99.90
5172;DHT22;2605;49.770;9.868;2023-08-07T15:00:04;21.60;99.90
5172;DHT22;2605;49.770;9.868;2023-08-07T15:02:31;23.20;99.90
5172;DHT22;2605;49.770;9.868;2023-08-07T15:04:56;23.10;99.90
5172;DHT22;2605;49.770;9.868;2023-08-07T15:07:22;22.90;99.90
5172;DHT22;2605;49.770;9.868;2023-08-07T15:09:47;22.30;99.90
5172;DHT22;2605;49.770;9.868;2023-08-07T15:12:16;22.20;99.90
5172;DHT22;2605;49.770;9.868;2023-08-07T15:14:41;22.40;99.90
5172;DHT22;2605;49.770;9.868;2023-08-07T15:17:07;22.80;99.90
5172;DHT22;2605;49.770;9.868;2023-08-07T15:19:32;21.60;99.90
5172;DHT22;2605;49.770;9.868;2023-08-07T15:21:58;19.40;99.90
5172;DHT22;2605;49.770;9.868;2023-08-07T15:24:23;18.50;99.90
5172;DHT22;2605;49.770;9.868;2023-08-07T15:26:49;18.60;99.90
5172;DHT22;2605;49.770;9.868;2023-08-07T15:29:14;20.90;99.90
5172;DHT22;2605;49.770;9.868;2023-08-07T15:31:40;22.70;99.90
5172;DHT22;2605;49.770;9.868;2023-08-07T15:34:05;22.40;99.90
5172;DHT22;2605;49.770;9.868;2023-08-07T15:36:31;22.50;99.90
5172;DHT22;2605;49.770;9.868;2023-08-07T15:38:56;22.70;99.90
5172;DHT22;2605;49.770;9.868;2023-08-07T15:41:22;21.90;99.90
5172;DHT22;2605;49.770;9.868;2023-08-07T15:43:48;22.40;99.90
5172;DHT22;2605;49.770;9.868;2023-08-07T15:46:16;23.10;99.90
5172;DHT22;2605;49.770;9.868;2023-08-07T15:48:42;22.90;99.90
5172;DHT22;2605;49.770;9.868;2023-08-07T15:51:08;23.30;99.90
5172;DHT22;2605;49.770;9.868;2023-08-07T15:53:34;22.10;99.90
5172;DHT22;2605;49.770;9.868;2023-08-07T15:55:59;21.90;99.90
5172;DHT22;2605;49.770;9.868;2023-08-07T15:58:25;22.70;99.90
5172;DHT22;2605;49.770;9.868;2023-08-07T16:00:50;22.60;99.90
5172;DHT22;2605;49.770;9.868;2023-08-07T16:03:16;21.80;99.90
5172;DHT22;2605;49.770;9.868;2023-08-07T16:05:43;22.90;99.90
5172;DHT22;2605;49.770;9.868;2023-08-07T16:08:08;23.10;99.90